sensor_id;sensor_type;location;lat;lon;timestamp;P1;durP1;ratioP1;P2;durP2;ratioP2
55633;SDS011;41504;53.162;6.788;2023-07-24T00:01:39;13.80;;;6.95;;
55633;SDS011;41504;53.162;6.788;2023-07-24T00:04:05;10.52;;;6.50;;
55633;SDS011;41504;53.162;6.788;2023-07-24T00:06:31;10.57;;;5.80;;
55633;SDS011;41504;53.162;6.788;2023-07-24T00:08:56;9.38;;;6.35;;
55633;SDS011;41504;53.162;6.788;2023-07-24T00:11:22;10.57;;;6.38;;
55633;SDS011;41504;53.162;6.788;2023-07-24T00:13:48;9.75;;;6.90;;
55633;SDS011;41504;53.162;6.788;2023-07-24T00:16:13;10.13;;;6.60;;
55633;SDS011;41504;53.162;6.788;2023-07-24T00:18:39;11.85;;;6.78;;
55633;SDS011;41504;53.162;6.788;2023-07-24T00:21:09;10.60;;;6.82;;
55633;SDS011;41504;53.162;6.788;2023-07-24T00:23:36;10.85;;;6.70;;
55633;SDS011;41504;53.162;6.788;2023-07-24T00:26:04;9.23;;;6.10;;
55633;SDS011;41504;53.162;6.788;2023-07-24T00:28:30;11.23;;;6.40;;
55633;SDS011;41504;53.162;6.788;2023-07-24T00:30:56;10.98;;;6.20;;
55633;SDS011;41504;53.162;6.788;2023-07-24T00:33:21;10.80;;;6.70;;
55633;SDS011;41504;53.162;6.788;2023-07-24T00:35:47;10.43;;;6.30;;
55633;SDS011;41504;53.162;6.788;2023-07-24T00:38:13;11.32;;;6.63;;
55633;SDS011;41504;53.162;6.788;2023-07-24T00:40:38;11.63;;;6.30;;
55633;SDS011;41504;53.162;6.788;2023-07-24T00:43:04;11.02;;;6.32;;
55633;SDS011;41504;53.162;6.788;2023-07-24T00:45:30;10.77;;;6.35;;
55633;SDS011;41504;53.162;6.788;2023-07-24T00:47:56;11.02;;;6.65;;
55633;SDS011;41504;53.162;6.788;2023-07-24T00:50:23;13.48;;;6.85;;
55633;SDS011;41504;53.162;6.788;2023-07-24T00:52:50;11.80;;;6.80;;
55633;SDS011;41504;53.162;6.788;2023-07-24T00:55:16;11.93;;;6.88;;
55633;SDS011;41504;53.162;6.788;2023-07-24T00:57:42;12.25;;;6.90;;
55633;SDS011;41504;53.162;6.788;2023-07-24T01:00:09;10.43;;;6.80;;
55633;SDS011;41504;53.162;6.788;2023-07-24T01:02:36;10.27;;;6.90;;
55633;SDS011;41504;53.162;6.788;2023-07-24T01:05:04;11.60;;;7.18;;
55633;SDS011;41504;53.162;6.788;2023-07-24T01:07:31;12.70;;;7.03;;
55633;SDS011;41504;53.162;6.788;2023-07-24T01:09:57;10.18;;;7.13;;
55633;SDS011;41504;53.162;6.788;2023-07-24T01:12:31;11.45;;;6.80;;
55633;SDS011;41504;53.162;6.788;2023-07-24T01:15:10;11.48;;;7.18;;
55633;SDS011;41504;53.162;6.788;2023-07-24T01:17:48;14.73;;;8.00;;
55633;SDS011;41504;53.162;6.788;2023-07-24T01:20:18;11.27;;;7.38;;
55633;SDS011;41504;53.162;6.788;2023-07-24T01:25:42;11.90;;;7.68;;
55633;SDS011;41504;53.162;6.788;2023-07-24T01:28:15;13.13;;;8.10;;
55633;SDS011;41504;53.162;6.788;2023-07-24T01:30:41;13.40;;;7.68;;
55633;SDS011;41504;53.162;6.788;2023-07-24T01:33:07;12.70;;;7.85;;
55633;SDS011;41504;53.162;6.788;2023-07-24T01:35:33;12.10;;;7.97;;
55633;SDS011;41504;53.162;6.788;2023-07-24T01:37:59;12.32;;;8.13;;
55633;SDS011;41504;53.162;6.788;2023-07-24T01:40:26;11.48;;;8.07;;
55633;SDS011;41504;53.162;6.788;2023-07-24T01:42:52;13.68;;;8.45;;
55633;SDS011;41504;53.162;6.788;2023-07-24T01:45:17;12.23;;;7.82;;
55633;SDS011;41504;53.162;6.788;2023-07-24T01:47:43;12.73;;;8.88;;
55633;SDS011;41504;53.162;6.788;2023-07-24T01:50:09;12.50;;;8.75;;
55633;SDS011;41504;53.162;6.788;2023-07-24T01:52:35;12.05;;;8.60;;
55633;SDS011;41504;53.162;6.788;2023-07-24T01:55:01;11.82;;;9.13;;
55633;SDS011;41504;53.162;6.788;2023-07-24T01:57:27;13.95;;;9.77;;
55633;SDS011;41504;53.162;6.788;2023-07-24T01:59:52;11.52;;;8.77;;
55633;SDS011;41504;53.162;6.788;2023-07-24T02:02:21;15.63;;;10.27;;
55633;SDS011;41504;53.162;6.788;2023-07-24T02:04:47;14.52;;;11.40;;
55633;SDS011;41504;53.162;6.788;2023-07-24T02:07:12;12.32;;;10.32;;
55633;SDS011;41504;53.162;6.788;2023-07-24T02:09:38;15.35;;;11.25;;
55633;SDS011;41504;53.162;6.788;2023-07-24T02:12:04;14.88;;;11.00;;
55633;SDS011;41504;53.162;6.788;2023-07-24T02:14:30;13.75;;;11.43;;
55633;SDS011;41504;53.162;6.788;2023-07-24T02:16:56;14.48;;;10.65;;
55633;SDS011;41504;53.162;6.788;2023-07-24T02:19:22;14.13;;;10.75;;
55633;SDS011;41504;53.162;6.788;2023-07-24T02:21:47;13.05;;;10.73;;
55633;SDS011;41504;53.162;6.788;2023-07-24T02:24:13;12.93;;;10.35;;
55633;SDS011;41504;53.162;6.788;2023-07-24T02:26:39;14.25;;;11.15;;
55633;SDS011;41504;53.162;6.788;2023-07-24T02:29:04;13.60;;;10.85;;
55633;SDS011;41504;53.162;6.788;2023-07-24T02:31:30;13.70;;;9.98;;
55633;SDS011;41504;53.162;6.788;2023-07-24T02:33:56;14.73;;;10.73;;
55633;SDS011;41504;53.162;6.788;2023-07-24T02:36:21;13.98;;;10.35;;
55633;SDS011;41504;53.162;6.788;2023-07-24T02:38:47;14.23;;;9.68;;
55633;SDS011;41504;53.162;6.788;2023-07-24T02:41:13;14.02;;;10.50;;
55633;SDS011;41504;53.162;6.788;2023-07-24T02:43:38;12.82;;;9.82;;
55633;SDS011;41504;53.162;6.788;2023-07-24T02:46:04;14.20;;;10.05;;
55633;SDS011;41504;53.162;6.788;2023-07-24T02:48:30;12.32;;;9.05;;
55633;SDS011;41504;53.162;6.788;2023-07-24T02:50:55;13.25;;;8.85;;
55633;SDS011;41504;53.162;6.788;2023-07-24T02:53:21;13.93;;;9.30;;
55633;SDS011;41504;53.162;6.788;2023-07-24T02:55:47;12.15;;;8.73;;
55633;SDS011;41504;53.162;6.788;2023-07-24T02:58:13;11.35;;;8.35;;
55633;SDS011;41504;53.162;6.788;2023-07-24T03:00:39;13.88;;;9.45;;
55633;SDS011;41504;53.162;6.788;2023-07-24T03:03:05;12.13;;;8.75;;
55633;SDS011;41504;53.162;6.788;2023-07-24T03:05:34;12.80;;;8.60;;
55633;SDS011;41504;53.162;6.788;2023-07-24T03:08:00;11.88;;;9.15;;
55633;SDS011;41504;53.162;6.788;2023-07-24T03:10:25;12.05;;;8.32;;
55633;SDS011;41504;53.162;6.788;2023-07-24T03:12:51;13.27;;;8.68;;
55633;SDS011;41504;53.162;6.788;2023-07-24T03:15:17;13.30;;;8.65;;
55633;SDS011;41504;53.162;6.788;2023-07-24T03:17:43;10.73;;;7.97;;
55633;SDS011;41504;53.162;6.788;2023-07-24T03:20:09;12.25;;;8.48;;
55633;SDS011;41504;53.162;6.788;2023-07-24T03:22:40;13.30;;;9.00;;
55633;SDS011;41504;53.162;6.788;2023-07-24T03:25:06;13.48;;;8.90;;
55633;SDS011;41504;53.162;6.788;2023-07-24T03:27:33;11.85;;;8.40;;
55633;SDS011;41504;53.162;6.788;2023-07-24T03:29:58;12.57;;;9.20;;
55633;SDS011;41504;53.162;6.788;2023-07-24T03:32:24;12.13;;;9.00;;
55633;SDS011;41504;53.162;6.788;2023-07-24T03:34:50;10.98;;;8.25;;
55633;SDS011;41504;53.162;6.788;2023-07-24T03:37:16;12.90;;;9.48;;
55633;SDS011;41504;53.162;6.788;2023-07-24T03:39:41;11.93;;;9.20;;
55633;SDS011;41504;53.162;6.788;2023-07-24T03:42:09;12.05;;;9.20;;
55633;SDS011;41504;53.162;6.788;2023-07-24T03:44:38;13.07;;;8.90;;
55633;SDS011;41504;53.162;6.788;2023-07-24T03:47:07;12.35;;;9.07;;
55633;SDS011;41504;53.162;6.788;2023-07-24T03:49:33;13.20;;;9.55;;
55633;SDS011;41504;53.162;6.788;2023-07-24T03:51:59;12.57;;;9.43;;
55633;SDS011;41504;53.162;6.788;2023-07-24T03:54:24;12.13;;;9.75;;
55633;SDS011;41504;53.162;6.788;2023-07-24T03:56:50;13.57;;;10.13;;
55633;SDS011;41504;53.162;6.788;2023-07-24T03:59:16;13.38;;;9.68;;
55633;SDS011;41504;53.162;6.788;2023-07-24T04:01:41;12.38;;;9.68;;
55633;SDS011;41504;53.162;6.788;2023-07-24T04:04:07;13.18;;;8.80;;
55633;SDS011;41504;53.162;6.788;2023-07-24T04:06:33;14.27;;;10.07;;
55633;SDS011;41504;53.162;6.788;2023-07-24T04:08:59;12.15;;;9.10;;
55633;SDS011;41504;53.162;6.788;2023-07-24T04:11:25;12.30;;;9.27;;
55633;SDS011;41504;53.162;6.788;2023-07-24T04:13:50;11.63;;;9.07;;
55633;SDS011;41504;53.162;6.788;2023-07-24T04:16:16;11.57;;;9.07;;
55633;SDS011;41504;53.162;6.788;2023-07-24T04:18:42;12.73;;;10.25;;
55633;SDS011;41504;53.162;6.788;2023-07-24T04:21:07;15.68;;;9.18;;
55633;SDS011;41504;53.162;6.788;2023-07-24T04:23:33;11.82;;;8.98;;
55633;SDS011;41504;53.162;6.788;2023-07-24T04:25:59;13.65;;;9.85;;
55633;SDS011;41504;53.162;6.788;2023-07-24T04:28:24;11.88;;;8.93;;
55633;SDS011;41504;53.162;6.788;2023-07-24T04:30:50;11.68;;;8.45;;
55633;SDS011;41504;53.162;6.788;2023-07-24T04:33:16;13.05;;;9.35;;
55633;SDS011;41504;53.162;6.788;2023-07-24T04:35:41;13.90;;;9.55;;
55633;SDS011;41504;53.162;6.788;2023-07-24T04:38:07;11.68;;;8.80;;
55633;SDS011;41504;53.162;6.788;2023-07-24T04:40:33;12.63;;;9.45;;
55633;SDS011;41504;53.162;6.788;2023-07-24T04:42:59;12.90;;;9.77;;
55633;SDS011;41504;53.162;6.788;2023-07-24T04:45:25;13.25;;;9.45;;
55633;SDS011;41504;53.162;6.788;2023-07-24T04:47:50;13.23;;;9.40;;
55633;SDS011;41504;53.162;6.788;2023-07-24T04:50:16;12.43;;;9.55;;
55633;SDS011;41504;53.162;6.788;2023-07-24T04:52:42;12.35;;;9.32;;
55633;SDS011;41504;53.162;6.788;2023-07-24T04:55:07;12.00;;;9.23;;
55633;SDS011;41504;53.162;6.788;2023-07-24T04:57:33;12.70;;;8.98;;
55633;SDS011;41504;53.162;6.788;2023-07-24T04:59:59;11.80;;;8.80;;
55633;SDS011;41504;53.162;6.788;2023-07-24T05:02:24;10.98;;;8.57;;
55633;SDS011;41504;53.162;6.788;2023-07-24T05:04:50;11.98;;;8.90;;
55633;SDS011;41504;53.162;6.788;2023-07-24T05:07:16;12.68;;;9.13;;
55633;SDS011;41504;53.162;6.788;2023-07-24T05:09:42;12.02;;;9.23;;
55633;SDS011;41504;53.162;6.788;2023-07-24T05:12:07;11.73;;;9.05;;
55633;SDS011;41504;53.162;6.788;2023-07-24T05:14:33;11.70;;;8.32;;
55633;SDS011;41504;53.162;6.788;2023-07-24T05:16:59;12.23;;;9.10;;
55633;SDS011;41504;53.162;6.788;2023-07-24T05:19:25;11.50;;;8.80;;
55633;SDS011;41504;53.162;6.788;2023-07-24T05:21:50;11.43;;;8.73;;
55633;SDS011;41504;53.162;6.788;2023-07-24T05:24:16;10.85;;;8.20;;
55633;SDS011;41504;53.162;6.788;2023-07-24T05:26:42;11.52;;;8.85;;
55633;SDS011;41504;53.162;6.788;2023-07-24T05:29:07;11.93;;;9.32;;
55633;SDS011;41504;53.162;6.788;2023-07-24T05:31:42;12.05;;;9.10;;
55633;SDS011;41504;53.162;6.788;2023-07-24T05:34:08;12.02;;;9.13;;
55633;SDS011;41504;53.162;6.788;2023-07-24T05:36:33;13.32;;;9.45;;
55633;SDS011;41504;53.162;6.788;2023-07-24T05:38:59;11.80;;;8.88;;
55633;SDS011;41504;53.162;6.788;2023-07-24T05:41:25;11.50;;;8.98;;
55633;SDS011;41504;53.162;6.788;2023-07-24T05:43:51;14.30;;;9.10;;
55633;SDS011;41504;53.162;6.788;2023-07-24T05:46:16;11.85;;;8.75;;
55633;SDS011;41504;53.162;6.788;2023-07-24T05:48:42;11.82;;;8.52;;
55633;SDS011;41504;53.162;6.788;2023-07-24T05:51:10;11.00;;;8.32;;
55633;SDS011;41504;53.162;6.788;2023-07-24T05:53:39;13.32;;;9.02;;
55633;SDS011;41504;53.162;6.788;2023-07-24T05:56:05;12.32;;;9.00;;
55633;SDS011;41504;53.162;6.788;2023-07-24T05:58:31;12.50;;;9.23;;
55633;SDS011;41504;53.162;6.788;2023-07-24T06:00:56;12.70;;;8.60;;
55633;SDS011;41504;53.162;6.788;2023-07-24T06:03:23;11.30;;;9.07;;
55633;SDS011;41504;53.162;6.788;2023-07-24T06:05:52;11.70;;;8.35;;
55633;SDS011;41504;53.162;6.788;2023-07-24T06:08:19;11.60;;;8.35;;
55633;SDS011;41504;53.162;6.788;2023-07-24T06:10:51;14.57;;;9.10;;
55633;SDS011;41504;53.162;6.788;2023-07-24T06:13:19;12.00;;;8.73;;
55633;SDS011;41504;53.162;6.788;2023-07-24T06:15:49;12.63;;;9.00;;
55633;SDS011;41504;53.162;6.788;2023-07-24T06:18:15;12.43;;;8.32;;
55633;SDS011;41504;53.162;6.788;2023-07-24T06:20:44;12.45;;;9.30;;
55633;SDS011;41504;53.162;6.788;2023-07-24T06:23:09;10.93;;;8.48;;
55633;SDS011;41504;53.162;6.788;2023-07-24T06:25:35;11.60;;;9.38;;
55633;SDS011;41504;53.162;6.788;2023-07-24T06:28:04;12.27;;;9.10;;
55633;SDS011;41504;53.162;6.788;2023-07-24T06:30:30;13.95;;;9.27;;
55633;SDS011;41504;53.162;6.788;2023-07-24T06:32:55;10.80;;;8.27;;
55633;SDS011;41504;53.162;6.788;2023-07-24T06:35:24;12.77;;;8.88;;
55633;SDS011;41504;53.162;6.788;2023-07-24T06:37:50;12.15;;;8.57;;
55633;SDS011;41504;53.162;6.788;2023-07-24T06:40:15;13.68;;;10.02;;
55633;SDS011;41504;53.162;6.788;2023-07-24T06:42:41;11.35;;;8.30;;
55633;SDS011;41504;53.162;6.788;2023-07-24T06:45:07;12.35;;;8.73;;
55633;SDS011;41504;53.162;6.788;2023-07-24T06:47:33;12.07;;;8.82;;
55633;SDS011;41504;53.162;6.788;2023-07-24T06:49:59;13.95;;;8.95;;
55633;SDS011;41504;53.162;6.788;2023-07-24T06:52:24;11.98;;;8.80;;
55633;SDS011;41504;53.162;6.788;2023-07-24T06:54:50;11.57;;;8.88;;
55633;SDS011;41504;53.162;6.788;2023-07-24T06:57:16;14.98;;;9.45;;
55633;SDS011;41504;53.162;6.788;2023-07-24T06:59:41;13.77;;;9.20;;
55633;SDS011;41504;53.162;6.788;2023-07-24T07:02:07;11.65;;;8.52;;
55633;SDS011;41504;53.162;6.788;2023-07-24T07:04:36;14.07;;;9.57;;
55633;SDS011;41504;53.162;6.788;2023-07-24T07:07:05;11.32;;;7.93;;
55633;SDS011;41504;53.162;6.788;2023-07-24T07:09:35;12.27;;;8.25;;
55633;SDS011;41504;53.162;6.788;2023-07-24T07:12:01;14.32;;;9.20;;
55633;SDS011;41504;53.162;6.788;2023-07-24T07:14:26;13.70;;;8.82;;
55633;SDS011;41504;53.162;6.788;2023-07-24T07:16:52;14.27;;;9.18;;
55633;SDS011;41504;53.162;6.788;2023-07-24T07:19:18;15.88;;;8.93;;
55633;SDS011;41504;53.162;6.788;2023-07-24T07:21:43;11.30;;;7.95;;
55633;SDS011;41504;53.162;6.788;2023-07-24T07:24:09;11.75;;;7.88;;
55633;SDS011;41504;53.162;6.788;2023-07-24T07:26:35;14.70;;;9.50;;
55633;SDS011;41504;53.162;6.788;2023-07-24T07:29:00;12.73;;;9.02;;
55633;SDS011;41504;53.162;6.788;2023-07-24T07:31:26;11.90;;;8.05;;
55633;SDS011;41504;53.162;6.788;2023-07-24T07:33:52;14.60;;;8.90;;
55633;SDS011;41504;53.162;6.788;2023-07-24T07:36:18;13.40;;;8.43;;
55633;SDS011;41504;53.162;6.788;2023-07-24T07:38:43;12.27;;;7.90;;
55633;SDS011;41504;53.162;6.788;2023-07-24T07:41:09;13.20;;;8.90;;
55633;SDS011;41504;53.162;6.788;2023-07-24T07:43:35;14.07;;;9.05;;
55633;SDS011;41504;53.162;6.788;2023-07-24T07:46:04;13.10;;;8.02;;
55633;SDS011;41504;53.162;6.788;2023-07-24T07:48:32;14.02;;;7.85;;
55633;SDS011;41504;53.162;6.788;2023-07-24T07:50:58;11.70;;;8.00;;
55633;SDS011;41504;53.162;6.788;2023-07-24T07:53:24;11.52;;;7.78;;
55633;SDS011;41504;53.162;6.788;2023-07-24T07:55:56;12.73;;;8.05;;
55633;SDS011;41504;53.162;6.788;2023-07-24T08:00:48;12.95;;;8.60;;
55633;SDS011;41504;53.162;6.788;2023-07-24T08:03:14;12.40;;;8.43;;
55633;SDS011;41504;53.162;6.788;2023-07-24T08:05:46;12.98;;;8.70;;
55633;SDS011;41504;53.162;6.788;2023-07-24T08:08:12;11.88;;;8.65;;
55633;SDS011;41504;53.162;6.788;2023-07-24T08:10:38;14.13;;;8.98;;
55633;SDS011;41504;53.162;6.788;2023-07-24T08:13:04;12.32;;;7.78;;
55633;SDS011;41504;53.162;6.788;2023-07-24T08:15:35;11.60;;;8.13;;
55633;SDS011;41504;53.162;6.788;2023-07-24T08:18:05;12.98;;;8.48;;
55633;SDS011;41504;53.162;6.788;2023-07-24T08:20:31;15.02;;;8.30;;
55633;SDS011;41504;53.162;6.788;2023-07-24T08:22:57;13.40;;;8.27;;
55633;SDS011;41504;53.162;6.788;2023-07-24T08:25:23;12.65;;;8.15;;
55633;SDS011;41504;53.162;6.788;2023-07-24T08:27:52;14.75;;;8.82;;
55633;SDS011;41504;53.162;6.788;2023-07-24T08:30:18;14.63;;;7.85;;
55633;SDS011;41504;53.162;6.788;2023-07-24T08:32:44;11.63;;;7.50;;
55633;SDS011;41504;53.162;6.788;2023-07-24T08:35:10;12.10;;;7.70;;
55633;SDS011;41504;53.162;6.788;2023-07-24T08:37:36;15.57;;;7.85;;
55633;SDS011;41504;53.162;6.788;2023-07-24T08:40:07;12.43;;;6.88;;
55633;SDS011;41504;53.162;6.788;2023-07-24T08:42:35;10.85;;;6.55;;
55633;SDS011;41504;53.162;6.788;2023-07-24T08:45:05;13.18;;;7.82;;
55633;SDS011;41504;53.162;6.788;2023-07-24T08:50:05;12.57;;;7.15;;
55633;SDS011;41504;53.162;6.788;2023-07-24T08:52:38;14.10;;;7.28;;
55633;SDS011;41504;53.162;6.788;2023-07-24T08:55:04;11.80;;;6.80;;
55633;SDS011;41504;53.162;6.788;2023-07-24T08:57:30;13.43;;;7.40;;
55633;SDS011;41504;53.162;6.788;2023-07-24T08:59:56;15.00;;;7.70;;
55633;SDS011;41504;53.162;6.788;2023-07-24T09:02:23;14.98;;;7.93;;
55633;SDS011;41504;53.162;6.788;2023-07-24T09:04:49;13.25;;;8.20;;
55633;SDS011;41504;53.162;6.788;2023-07-24T09:07:15;12.80;;;8.00;;
55633;SDS011;41504;53.162;6.788;2023-07-24T09:09:40;13.27;;;7.63;;
55633;SDS011;41504;53.162;6.788;2023-07-24T09:12:07;13.27;;;7.65;;
55633;SDS011;41504;53.162;6.788;2023-07-24T09:14:33;11.75;;;7.50;;
55633;SDS011;41504;53.162;6.788;2023-07-24T09:17:02;13.65;;;7.47;;
55633;SDS011;41504;53.162;6.788;2023-07-24T09:19:29;12.25;;;8.10;;
55633;SDS011;41504;53.162;6.788;2023-07-24T09:21:55;13.23;;;7.88;;
55633;SDS011;41504;53.162;6.788;2023-07-24T09:24:21;15.55;;;8.68;;
55633;SDS011;41504;53.162;6.788;2023-07-24T09:26:50;14.30;;;8.27;;
55633;SDS011;41504;53.162;6.788;2023-07-24T09:29:17;15.25;;;9.75;;
55633;SDS011;41504;53.162;6.788;2023-07-24T09:31:43;13.68;;;8.65;;
55633;SDS011;41504;53.162;6.788;2023-07-24T09:34:17;14.05;;;8.73;;
55633;SDS011;41504;53.162;6.788;2023-07-24T09:36:43;12.82;;;8.73;;
55633;SDS011;41504;53.162;6.788;2023-07-24T09:39:09;15.07;;;8.65;;
55633;SDS011;41504;53.162;6.788;2023-07-24T09:41:37;14.05;;;8.70;;
55633;SDS011;41504;53.162;6.788;2023-07-24T09:44:04;15.27;;;8.70;;
55633;SDS011;41504;53.162;6.788;2023-07-24T09:46:30;13.20;;;8.43;;
55633;SDS011;41504;53.162;6.788;2023-07-24T09:48:57;11.50;;;7.75;;
55633;SDS011;41504;53.162;6.788;2023-07-24T09:51:23;12.38;;;8.00;;
55633;SDS011;41504;53.162;6.788;2023-07-24T09:53:53;13.68;;;7.90;;
55633;SDS011;41504;53.162;6.788;2023-07-24T09:56:23;13.00;;;8.13;;
55633;SDS011;41504;53.162;6.788;2023-07-24T09:58:50;15.10;;;7.72;;
55633;SDS011;41504;53.162;6.788;2023-07-24T10:01:20;12.75;;;8.40;;
55633;SDS011;41504;53.162;6.788;2023-07-24T10:03:47;11.93;;;7.85;;
55633;SDS011;41504;53.162;6.788;2023-07-24T10:06:17;12.52;;;8.32;;
55633;SDS011;41504;53.162;6.788;2023-07-24T10:08:43;11.55;;;6.95;;
55633;SDS011;41504;53.162;6.788;2023-07-24T10:11:09;11.55;;;7.40;;
55633;SDS011;41504;53.162;6.788;2023-07-24T10:13:37;10.85;;;7.03;;
55633;SDS011;41504;53.162;6.788;2023-07-24T10:16:04;12.10;;;6.88;;
55633;SDS011;41504;53.162;6.788;2023-07-24T10:18:32;13.30;;;7.55;;
55633;SDS011;41504;53.162;6.788;2023-07-24T10:21:14;10.88;;;7.18;;
55633;SDS011;41504;53.162;6.788;2023-07-24T10:23:55;12.70;;;7.57;;
55633;SDS011;41504;53.162;6.788;2023-07-24T10:26:30;12.18;;;7.40;;
55633;SDS011;41504;53.162;6.788;2023-07-24T10:28:58;12.70;;;6.88;;
55633;SDS011;41504;53.162;6.788;2023-07-24T10:31:26;12.13;;;6.18;;
55633;SDS011;41504;53.162;6.788;2023-07-24T10:34:07;10.95;;;6.50;;
55633;SDS011;41504;53.162;6.788;2023-07-24T10:36:33;10.50;;;6.13;;
55633;SDS011;41504;53.162;6.788;2023-07-24T10:39:00;10.77;;;6.28;;
55633;SDS011;41504;53.162;6.788;2023-07-24T10:41:34;12.50;;;5.68;;
55633;SDS011;41504;53.162;6.788;2023-07-24T10:44:00;12.27;;;6.00;;
55633;SDS011;41504;53.162;6.788;2023-07-24T10:46:35;12.65;;;6.80;;
55633;SDS011;41504;53.162;6.788;2023-07-24T10:49:05;12.27;;;6.90;;
55633;SDS011;41504;53.162;6.788;2023-07-24T10:51:36;12.93;;;7.53;;
55633;SDS011;41504;53.162;6.788;2023-07-24T10:54:03;12.55;;;6.60;;
55633;SDS011;41504;53.162;6.788;2023-07-24T10:56:30;11.52;;;6.50;;
55633;SDS011;41504;53.162;6.788;2023-07-24T10:58:56;11.10;;;5.90;;
55633;SDS011;41504;53.162;6.788;2023-07-24T11:01:31;10.75;;;6.05;;
55633;SDS011;41504;53.162;6.788;2023-07-24T11:03:57;10.23;;;5.93;;
55633;SDS011;41504;53.162;6.788;2023-07-24T11:06:27;10.23;;;6.00;;
55633;SDS011;41504;53.162;6.788;2023-07-24T11:08:57;10.20;;;6.00;;
55633;SDS011;41504;53.162;6.788;2023-07-24T11:11:28;9.43;;;6.03;;
55633;SDS011;41504;53.162;6.788;2023-07-24T11:13:58;10.85;;;6.13;;
55633;SDS011;41504;53.162;6.788;2023-07-24T11:16:25;12.27;;;6.30;;
55633;SDS011;41504;53.162;6.788;2023-07-24T11:18:51;12.82;;;6.25;;
55633;SDS011;41504;53.162;6.788;2023-07-24T11:21:20;10.65;;;6.10;;
55633;SDS011;41504;53.162;6.788;2023-07-24T11:23:49;10.15;;;6.15;;
55633;SDS011;41504;53.162;6.788;2023-07-24T11:26:20;10.70;;;6.03;;
55633;SDS011;41504;53.162;6.788;2023-07-24T11:31:18;10.05;;;5.22;;
55633;SDS011;41504;53.162;6.788;2023-07-24T11:33:46;9.88;;;5.30;;
55633;SDS011;41504;53.162;6.788;2023-07-24T11:36:15;8.13;;;4.90;;
55633;SDS011;41504;53.162;6.788;2023-07-24T11:38:41;10.40;;;5.47;;
55633;SDS011;41504;53.162;6.788;2023-07-24T11:41:09;8.70;;;5.68;;
55633;SDS011;41504;53.162;6.788;2023-07-24T11:43:35;8.95;;;5.22;;
55633;SDS011;41504;53.162;6.788;2023-07-24T11:46:22;9.18;;;5.45;;
55633;SDS011;41504;53.162;6.788;2023-07-24T11:48:49;10.35;;;5.57;;
55633;SDS011;41504;53.162;6.788;2023-07-24T11:51:18;11.05;;;5.80;;
55633;SDS011;41504;53.162;6.788;2023-07-24T11:53:44;10.13;;;5.50;;
55633;SDS011;41504;53.162;6.788;2023-07-24T11:56:14;11.18;;;5.65;;
55633;SDS011;41504;53.162;6.788;2023-07-24T11:58:41;10.07;;;4.90;;
55633;SDS011;41504;53.162;6.788;2023-07-24T12:01:06;8.80;;;5.40;;
55633;SDS011;41504;53.162;6.788;2023-07-24T12:03:32;12.40;;;5.97;;
55633;SDS011;41504;53.162;6.788;2023-07-24T12:05:58;10.07;;;6.10;;
55633;SDS011;41504;53.162;6.788;2023-07-24T12:08:31;10.98;;;5.93;;
55633;SDS011;41504;53.162;6.788;2023-07-24T12:10:58;8.90;;;6.18;;
55633;SDS011;41504;53.162;6.788;2023-07-24T12:13:24;10.80;;;5.57;;
55633;SDS011;41504;53.162;6.788;2023-07-24T12:15:50;10.35;;;5.88;;
55633;SDS011;41504;53.162;6.788;2023-07-24T12:18:16;11.20;;;6.28;;
55633;SDS011;41504;53.162;6.788;2023-07-24T12:20:42;11.45;;;6.07;;
55633;SDS011;41504;53.162;6.788;2023-07-24T12:23:08;10.25;;;6.55;;
55633;SDS011;41504;53.162;6.788;2023-07-24T12:25:34;9.65;;;6.05;;
55633;SDS011;41504;53.162;6.788;2023-07-24T12:28:00;10.88;;;6.25;;
55633;SDS011;41504;53.162;6.788;2023-07-24T12:30:25;10.90;;;5.82;;
55633;SDS011;41504;53.162;6.788;2023-07-24T12:32:51;10.13;;;6.20;;
55633;SDS011;41504;53.162;6.788;2023-07-24T12:35:17;10.82;;;6.25;;
55633;SDS011;41504;53.162;6.788;2023-07-24T12:37:43;10.75;;;6.05;;
55633;SDS011;41504;53.162;6.788;2023-07-24T12:40:10;10.50;;;5.85;;
55633;SDS011;41504;53.162;6.788;2023-07-24T12:42:37;10.82;;;6.30;;
55633;SDS011;41504;53.162;6.788;2023-07-24T12:45:03;10.93;;;5.70;;
55633;SDS011;41504;53.162;6.788;2023-07-24T12:47:30;8.80;;;5.40;;
55633;SDS011;41504;53.162;6.788;2023-07-24T12:49:56;9.95;;;5.93;;
55633;SDS011;41504;53.162;6.788;2023-07-24T12:52:23;13.43;;;6.35;;
55633;SDS011;41504;53.162;6.788;2023-07-24T12:54:49;12.52;;;6.82;;
55633;SDS011;41504;53.162;6.788;2023-07-24T12:57:15;11.65;;;6.47;;
55633;SDS011;41504;53.162;6.788;2023-07-24T12:59:41;9.82;;;6.68;;
55633;SDS011;41504;53.162;6.788;2023-07-24T13:02:07;11.35;;;6.75;;
55633;SDS011;41504;53.162;6.788;2023-07-24T13:04:32;12.85;;;7.03;;
55633;SDS011;41504;53.162;6.788;2023-07-24T13:06:58;7.95;;;3.65;;
55633;SDS011;41504;53.162;6.788;2023-07-24T13:09:25;8.32;;;4.05;;
55633;SDS011;41504;53.162;6.788;2023-07-24T13:11:52;6.60;;;3.63;;
55633;SDS011;41504;53.162;6.788;2023-07-24T13:14:19;6.10;;;3.90;;
55633;SDS011;41504;53.162;6.788;2023-07-24T13:16:52;8.07;;;4.72;;
55633;SDS011;41504;53.162;6.788;2023-07-24T13:19:17;9.45;;;6.03;;
55633;SDS011;41504;53.162;6.788;2023-07-24T13:21:46;9.98;;;6.50;;
55633;SDS011;41504;53.162;6.788;2023-07-24T13:24:12;8.23;;;5.55;;
55633;SDS011;41504;53.162;6.788;2023-07-24T13:26:41;7.13;;;5.30;;
55633;SDS011;41504;53.162;6.788;2023-07-24T13:29:07;6.85;;;4.13;;
55633;SDS011;41504;53.162;6.788;2023-07-24T13:31:34;8.77;;;4.30;;
55633;SDS011;41504;53.162;6.788;2023-07-24T13:34:00;6.13;;;4.05;;
55633;SDS011;41504;53.162;6.788;2023-07-24T13:36:27;9.30;;;4.45;;
55633;SDS011;41504;53.162;6.788;2023-07-24T13:38:52;7.13;;;4.43;;
55633;SDS011;41504;53.162;6.788;2023-07-24T13:41:18;8.88;;;4.50;;
55633;SDS011;41504;53.162;6.788;2023-07-24T13:43:44;7.63;;;4.53;;
55633;SDS011;41504;53.162;6.788;2023-07-24T13:46:10;8.00;;;4.97;;
55633;SDS011;41504;53.162;6.788;2023-07-24T13:48:35;7.85;;;4.20;;
55633;SDS011;41504;53.162;6.788;2023-07-24T13:51:01;7.65;;;4.82;;
55633;SDS011;41504;53.162;6.788;2023-07-24T13:53:27;8.02;;;4.78;;
55633;SDS011;41504;53.162;6.788;2023-07-24T13:55:53;7.20;;;4.50;;
55633;SDS011;41504;53.162;6.788;2023-07-24T13:58:18;6.82;;;4.80;;
55633;SDS011;41504;53.162;6.788;2023-07-24T14:00:44;7.55;;;4.65;;
55633;SDS011;41504;53.162;6.788;2023-07-24T14:03:10;7.10;;;4.53;;
55633;SDS011;41504;53.162;6.788;2023-07-24T14:05:36;7.18;;;4.60;;
55633;SDS011;41504;53.162;6.788;2023-07-24T14:08:02;7.13;;;4.60;;
55633;SDS011;41504;53.162;6.788;2023-07-24T14:10:28;7.95;;;5.15;;
55633;SDS011;41504;53.162;6.788;2023-07-24T14:12:53;8.00;;;4.75;;
55633;SDS011;41504;53.162;6.788;2023-07-24T14:15:19;7.50;;;4.65;;
55633;SDS011;41504;53.162;6.788;2023-07-24T14:17:45;5.97;;;3.63;;
55633;SDS011;41504;53.162;6.788;2023-07-24T14:20:11;6.50;;;2.92;;
55633;SDS011;41504;53.162;6.788;2023-07-24T14:22:37;5.70;;;2.78;;
55633;SDS011;41504;53.162;6.788;2023-07-24T14:25:03;5.35;;;2.55;;
55633;SDS011;41504;53.162;6.788;2023-07-24T14:27:30;5.90;;;2.47;;
55633;SDS011;41504;53.162;6.788;2023-07-24T14:29:56;7.72;;;2.97;;
55633;SDS011;41504;53.162;6.788;2023-07-24T14:32:22;6.57;;;2.65;;
55633;SDS011;41504;53.162;6.788;2023-07-24T14:34:50;4.82;;;2.55;;
55633;SDS011;41504;53.162;6.788;2023-07-24T14:37:17;8.60;;;3.00;;
55633;SDS011;41504;53.162;6.788;2023-07-24T14:39:43;7.20;;;2.88;;
55633;SDS011;41504;53.162;6.788;2023-07-24T14:42:10;7.95;;;3.67;;
55633;SDS011;41504;53.162;6.788;2023-07-24T14:44:36;8.48;;;3.17;;